Time;durP1;ratioP1;P1;durP2;ratioP2;P2;SDS_P1;SDS_P2;PMS_P1;PMS_P2;Temp;Humidity;BMP_temperature;BMP_pressure;BME280_temperature;BME280_humidity;BME280_pressure;Samples;Min_cycle;Max_cycle;Signal;HPM_P1;HPM_P2
2022/11/25 00:01:28;;;;;;;22.45;11.05;;;;;;;;;;5049913;28;20029;-71
2022/11/25 00:03:54;;;;;;;18.40;10.05;;;;;;;;;;5046259;28;20127;-72
2022/11/25 00:06:24;;;;;;;19.63;10.45;;;;;;;;;;5045100;28;20082;-71
2022/11/25 00:08:49;;;;;;;;;;;;;;;;;;5029005;28;20026;-72
2022/11/25 00:11:15;;;;;;;18.38;10.35;;;;;;;;;;5046091;28;19909;-72
2022/11/25 00:13:41;;;;;;;19.50;10.43;;;;;;;;;;5052932;28;20029;-71
2022/11/25 00:16:08;;;;;;;22.60;10.70;;;;;;;;;;5049469;28;20028;-71
2022/11/25 00:18:33;;;;;;;18.95;10.30;;;;;;;;;;5024775;28;20037;-71
2022/11/25 00:21:03;;;;;;;21.00;11.38;;;;;;;;;;5050110;28;20059;-71
2022/11/25 00:23:28;;;;;;;20.77;10.57;;;;;;;;;;5046229;28;20475;-71
2022/11/25 00:25:54;;;;;;;18.77;10.57;;;;;;;;;;5051992;28;20108;-67
2022/11/25 00:28:19;;;;;;;18.53;10.50;;;;;;;;;;5048783;28;20653;-67
2022/11/25 00:30:44;;;;;;;19.70;10.87;;;;;;;;;;5044150;28;20087;-66
2022/11/25 00:33:09;;;;;;;23.02;11.05;;;;;;;;;;5044811;28;20261;-67
2022/11/25 00:35:35;;;;;;;21.40;11.30;;;;;;;;;;5034242;28;20144;-67
2022/11/25 00:38:00;;;;;;;18.17;10.53;;;;;;;;;;5045115;28;20137;-66
2022/11/25 00:40:25;;;;;;;21.77;10.63;;;;;;;;;;5044421;28;20036;-67
2022/11/25 00:45:34;;;;;;;21.20;11.50;;;;;;;;;;5039667;28;20071;-67
2022/11/25 00:47:59;;;;;;;23.63;11.53;;;;;;;;;;5034239;28;20028;-66
2022/11/25 00:50:25;;;;;;;22.93;12.37;;;;;;;;;;5026523;28;20040;-68
2022/11/25 00:52:50;;;;;;;22.80;12.97;;;;;;;;;;5050452;28;20289;-67
2022/11/25 00:55:15;;;;;;;23.93;12.53;;;;;;;;;;5045330;28;20020;-67
2022/11/25 00:57:40;;;;;;;23.23;12.47;;;;;;;;;;5044583;28;20624;-67
2022/11/25 01:00:06;;;;;;;22.60;12.10;;;;;;;;;;5046763;28;20063;-67
2022/11/25 01:02:31;;;;;;;23.17;11.63;;;;;;;;;;5027018;28;20033;-67
2022/11/25 01:04:56;;;;;;;23.67;11.23;;;;;;;;;;5048203;28;20021;-67
2022/11/25 01:07:22;;;;;;;20.03;10.97;;;;;;;;;;5031042;28;20065;-67
2022/11/25 01:09:48;;;;;;;22.80;11.83;;;;;;;;;;5052620;28;20497;-67
2022/11/25 01:12:13;;;;;;;20.73;11.55;;;;;;;;;;5027406;28;20269;-67
2022/11/25 01:14:38;;;;;;;20.17;10.60;;;;;;;;;;5045492;28;20033;-67
2022/11/25 01:17:04;;;;;;;20.65;11.52;;;;;;;;;;5048164;28;20013;-67
2022/11/25 01:19:32;;;;;;;26.60;11.93;;;;;;;;;;5040294;28;20391;-67
2022/11/25 01:21:57;;;;;;;20.85;10.75;;;;;;;;;;5046806;28;20017;-66
2022/11/25 01:24:25;;;;;;;22.90;11.40;;;;;;;;;;5041390;28;20028;-67
2022/11/25 01:26:50;;;;;;;27.02;11.63;;;;;;;;;;5054213;28;20150;-64
2022/11/25 01:29:17;;;;;;;22.67;11.35;;;;;;;;;;5043129;28;20112;-67
2022/11/25 01:31:42;;;;;;;22.92;11.63;;;;;;;;;;5047731;28;20040;-67
2022/11/25 01:34:15;;;;;;;23.90;11.95;;;;;;;;;;5043650;28;20026;-67
2022/11/25 01:36:40;;;;;;;24.73;11.75;;;;;;;;;;5048777;28;20437;-67
2022/11/25 01:39:05;;;;;;;23.80;11.38;;;;;;;;;;5045233;28;20164;-68
2022/11/25 01:41:32;;;;;;;22.73;11.90;;;;;;;;;;5051756;28;20368;-67
2022/11/25 01:44:01;;;;;;;22.25;11.55;;;;;;;;;;5046584;28;20497;-67
2022/11/25 01:46:29;;;;;;;23.73;11.85;;;;;;;;;;5013761;28;20024;-67
2022/11/25 01:48:56;;;;;;;21.95;11.95;;;;;;;;;;5048897;28;20025;-67
2022/11/25 01:51:33;;;;;;;24.10;12.40;;;;;;;;;;5047353;28;20017;-67
2022/11/25 01:54:00;;;;;;;25.17;12.90;;;;;;;;;;5047804;28;20095;-67
2022/11/25 01:56:27;;;;;;;26.10;11.85;;;;;;;;;;5045083;28;20033;-66
2022/11/25 01:58:52;;;;;;;27.48;12.40;;;;;;;;;;5039752;28;20028;-67
2022/11/25 02:01:20;;;;;;;24.73;12.63;;;;;;;;;;5037593;28;20479;-68
2022/11/25 02:03:46;;;;;;;24.08;12.10;;;;;;;;;;5041541;28;20037;-67
2022/11/25 02:06:14;;;;;;;25.77;12.65;;;;;;;;;;5041872;28;20119;-68
2022/11/25 02:08:41;;;;;;;27.45;12.45;;;;;;;;;;5050689;28;20026;-67
2022/11/25 02:11:06;;;;;;;26.13;12.57;;;;;;;;;;5040653;28;20467;-67
2022/11/25 02:13:32;;;;;;;24.10;12.30;;;;;;;;;;5050483;28;20021;-67
2022/11/25 02:15:57;;;;;;;24.00;12.10;;;;;;;;;;5034199;28;20064;-66
2022/11/25 02:18:23;;;;;;;25.83;12.63;;;;;;;;;;5032224;28;20025;-66
2022/11/25 02:20:49;;;;;;;23.30;12.45;;;;;;;;;;5047546;28;20487;-67
2022/11/25 02:23:38;;;;;;;24.50;11.90;;;;;;;;;;5045095;28;20044;-67
2022/11/25 02:26:03;;;;;;;22.10;11.40;;;;;;;;;;5041445;28;20682;-67
2022/11/25 02:28:29;;;;;;;25.17;11.73;;;;;;;;;;5044466;28;20038;-66
2022/11/25 02:30:55;;;;;;;25.50;12.20;;;;;;;;;;5045754;28;20159;-67
2022/11/25 02:33:20;;;;;;;25.65;12.82;;;;;;;;;;5045314;28;20707;-67
2022/11/25 02:35:51;;;;;;;29.55;13.38;;;;;;;;;;5042538;28;20029;-67
2022/11/25 02:38:16;;;;;;;27.77;12.60;;;;;;;;;;5034906;28;20016;-67
2022/11/25 02:40:46;;;;;;;27.90;14.23;;;;;;;;;;5031805;28;20075;-67
2022/11/25 02:43:12;;;;;;;28.42;13.25;;;;;;;;;;5047699;28;20024;-66
2022/11/25 02:45:43;;;;;;;30.05;14.52;;;;;;;;;;5041347;28;20040;-67
2022/11/25 02:48:08;;;;;;;29.85;14.68;;;;;;;;;;5042027;28;20055;-66
2022/11/25 02:50:33;;;;;;;30.90;14.40;;;;;;;;;;5047868;28;20052;-67
2022/11/25 02:52:58;;;;;;;32.20;14.20;;;;;;;;;;5047328;28;20100;-67
2022/11/25 02:55:24;;;;;;;33.43;15.00;;;;;;;;;;5048990;28;20297;-67
2022/11/25 02:57:49;;;;;;;32.00;15.53;;;;;;;;;;5051319;28;20033;-68
2022/11/25 03:00:14;;;;;;;29.63;14.60;;;;;;;;;;5044513;28;20300;-66
2022/11/25 03:02:40;;;;;;;30.92;14.38;;;;;;;;;;5047624;28;20336;-68
2022/11/25 03:05:05;;;;;;;38.85;16.50;;;;;;;;;;5043082;28;20100;-68
2022/11/25 03:07:30;;;;;;;35.03;15.82;;;;;;;;;;5043173;28;20027;-68
2022/11/25 03:09:56;;;;;;;30.70;15.07;;;;;;;;;;5029729;28;20100;-68
2022/11/25 03:12:21;;;;;;;35.35;16.08;;;;;;;;;;5048920;28;20276;-68
2022/11/25 03:14:47;;;;;;;34.20;15.35;;;;;;;;;;5040406;28;20105;-67
2022/11/25 03:17:12;;;;;;;33.55;16.48;;;;;;;;;;5041545;28;20025;-69
2022/11/25 03:19:38;;;;;;;36.80;16.33;;;;;;;;;;5039369;28;20025;-68
2022/11/25 03:22:03;;;;;;;29.95;15.23;;;;;;;;;;5043287;28;20025;-67
2022/11/25 03:24:29;;;;;;;34.67;16.60;;;;;;;;;;5040031;28;20029;-67
2022/11/25 03:26:54;;;;;;;34.70;16.58;;;;;;;;;;5043174;28;20029;-68
2022/11/25 03:29:19;;;;;;;36.67;16.33;;;;;;;;;;5036894;28;20106;-68
2022/11/25 03:31:45;;;;;;;33.70;15.68;;;;;;;;;;5041920;28;20280;-67
2022/11/25 03:34:10;;;;;;;33.70;16.75;;;;;;;;;;5040202;28;20018;-67
2022/11/25 03:36:35;;;;;;;37.25;15.95;;;;;;;;;;5040279;28;20020;-66
2022/11/25 03:39:00;;;;;;;33.03;16.03;;;;;;;;;;5044222;28;20108;-67
2022/11/25 03:41:26;;;;;;;32.43;15.57;;;;;;;;;;5045502;28;20277;-67
2022/11/25 03:43:51;;;;;;;35.50;16.77;;;;;;;;;;5040377;28;20044;-68
2022/11/25 03:46:17;;;;;;;38.53;17.43;;;;;;;;;;5043500;28;20382;-67
2022/11/25 03:48:42;;;;;;;40.03;17.63;;;;;;;;;;5032350;28;20064;-67
2022/11/25 03:51:07;;;;;;;33.90;15.55;;;;;;;;;;5048155;28;20466;-68
2022/11/25 03:53:33;;;;;;;26.30;12.87;;;;;;;;;;5043957;28;20494;-68
2022/11/25 03:55:58;;;;;;;26.50;12.57;;;;;;;;;;5047656;28;20300;-68
2022/11/25 03:58:23;;;;;;;24.77;13.23;;;;;;;;;;5044802;28;20258;-68
2022/11/25 04:00:48;;;;;;;30.37;13.43;;;;;;;;;;5049702;28;20465;-67
2022/11/25 04:03:14;;;;;;;26.87;13.03;;;;;;;;;;5044863;28;20060;-68
2022/11/25 04:05:40;;;;;;;24.83;13.30;;;;;;;;;;5047109;28;20563;-68
2022/11/25 04:08:05;;;;;;;29.80;13.93;;;;;;;;;;5047470;28;20269;-68
2022/11/25 04:10:30;;;;;;;28.10;14.40;;;;;;;;;;5043320;28;20029;-67
2022/11/25 04:12:55;;;;;;;30.67;16.27;;;;;;;;;;5037622;28;20018;-68
2022/11/25 04:15:21;;;;;;;33.93;17.23;;;;;;;;;;5045523;28;20658;-68
2022/11/25 04:17:46;;;;;;;38.83;19.25;;;;;;;;;;5033371;28;20029;-68
2022/11/25 04:20:11;;;;;;;35.13;18.70;;;;;;;;;;5041171;28;20544;-68
2022/11/25 04:22:37;;;;;;;42.35;21.30;;;;;;;;;;5026479;28;20282;-67
2022/11/25 04:25:02;;;;;;;50.00;24.02;;;;;;;;;;5044291;28;20070;-68
2022/11/25 04:27:27;;;;;;;50.40;24.00;;;;;;;;;;5038306;28;20013;-68
2022/11/25 04:29:53;;;;;;;57.87;25.97;;;;;;;;;;5041348;28;20025;-68
2022/11/25 04:32:18;;;;;;;55.93;27.50;;;;;;;;;;5041309;28;20147;-68
2022/11/25 04:34:43;;;;;;;83.87;37.23;;;;;;;;;;5045896;28;20036;-69
2022/11/25 04:37:08;;;;;;;87.27;40.07;;;;;;;;;;5043347;28;20029;-69
2022/11/25 04:39:33;;;;;;;85.13;40.30;;;;;;;;;;5043594;28;20082;-69
2022/11/25 04:44:42;;;;;;;85.57;39.85;;;;;;;;;;5033253;28;20028;-69
2022/11/25 04:47:08;;;;;;;87.53;40.67;;;;;;;;;;5037686;28;20451;-69
2022/11/25 04:49:33;;;;;;;92.50;41.40;;;;;;;;;;5038664;28;20266;-69
2022/11/25 04:51:58;;;;;;;92.53;44.00;;;;;;;;;;5037955;28;20321;-70
2022/11/25 04:54:23;;;;;;;94.07;42.93;;;;;;;;;;5030510;28;20369;-69
2022/11/25 04:56:49;;;;;;;85.80;40.27;;;;;;;;;;5031594;28;20100;-68
2022/11/25 05:01:58;;;;;;;82.57;36.65;;;;;;;;;;5041647;28;20036;-69
2022/11/25 05:04:23;;;;;;;82.90;34.47;;;;;;;;;;5045921;28;20017;-69
2022/11/25 05:06:50;;;;;;;77.37;31.57;;;;;;;;;;5046717;28;20037;-69
2022/11/25 05:09:15;;;;;;;70.82;30.02;;;;;;;;;;5033500;28;20032;-69
2022/11/25 05:11:41;;;;;;;70.68;28.00;;;;;;;;;;5038237;28;20107;-68
2022/11/25 05:14:06;;;;;;;58.40;25.07;;;;;;;;;;5032932;28;20044;-69
2022/11/25 05:16:31;;;;;;;55.33;23.53;;;;;;;;;;5027853;28;20036;-69
2022/11/25 05:18:56;;;;;;;57.17;23.05;;;;;;;;;;5041039;28;20096;-68
2022/11/25 05:21:21;;;;;;;51.87;22.40;;;;;;;;;;5040332;28;20017;-69
2022/11/25 05:23:47;;;;;;;52.20;22.00;;;;;;;;;;5046682;28;20049;-69
2022/11/25 05:26:12;;;;;;;46.47;19.70;;;;;;;;;;5040513;28;20025;-68
2022/11/25 05:28:37;;;;;;;47.37;20.07;;;;;;;;;;5027926;28;20029;-69
2022/11/25 05:31:02;;;;;;;49.73;20.30;;;;;;;;;;5036382;28;20083;-69
2022/11/25 05:33:28;;;;;;;52.17;20.50;;;;;;;;;;5037084;28;20025;-69
2022/11/25 05:35:54;;;;;;;59.23;22.50;;;;;;;;;;5045634;28;20274;-67
2022/11/25 05:38:19;;;;;;;62.38;22.73;;;;;;;;;;5047517;28;20285;-68
2022/11/25 05:40:44;;;;;;;62.30;23.90;;;;;;;;;;5031670;28;20571;-69
2022/11/25 05:43:09;;;;;;;71.57;24.57;;;;;;;;;;5038474;28;20293;-69
2022/11/25 05:45:37;;;;;;;65.53;25.77;;;;;;;;;;5033896;28;20033;-69
2022/11/25 05:48:02;;;;;;;57.13;23.02;;;;;;;;;;5048291;28;20025;-69
2022/11/25 05:50:27;;;;;;;67.45;23.05;;;;;;;;;;5041682;28;20020;-69
2022/11/25 05:52:52;;;;;;;65.27;24.80;;;;;;;;;;5050257;28;20470;-69
2022/11/25 05:55:18;;;;;;;61.43;23.63;;;;;;;;;;5042283;28;20531;-67
2022/11/25 05:57:43;;;;;;;76.03;24.80;;;;;;;;;;5045918;28;20274;-69
2022/11/25 06:00:08;;;;;;;76.80;24.47;;;;;;;;;;5036684;28;20030;-69
2022/11/25 06:02:34;;;;;;;76.90;23.88;;;;;;;;;;5046039;28;20116;-68
2022/11/25 06:04:59;;;;;;;62.33;21.60;;;;;;;;;;5038983;28;20426;-68
2022/11/25 06:07:24;;;;;;;61.27;22.23;;;;;;;;;;5038866;28;20282;-68
2022/11/25 06:09:49;;;;;;;56.50;21.87;;;;;;;;;;5033367;28;20061;-71
2022/11/25 06:12:14;;;;;;;66.33;22.67;;;;;;;;;;5035614;28;20294;-71
2022/11/25 06:14:40;;;;;;;61.40;23.33;;;;;;;;;;5045501;28;20651;-71
2022/11/25 06:17:05;;;;;;;65.67;24.23;;;;;;;;;;5041015;28;20020;-71
2022/11/25 06:19:30;;;;;;;68.60;23.90;;;;;;;;;;5035376;28;20286;-71
2022/11/25 06:21:55;;;;;;;76.97;24.67;;;;;;;;;;5029574;28;20056;-67
2022/11/25 06:24:21;;;;;;;645.83;112.37;;;;;;;;;;5037308;28;20502;-67
2022/11/25 06:26:46;;;;;;;93.10;31.50;;;;;;;;;;5049335;28;20462;-67
2022/11/25 06:29:11;;;;;;;91.67;30.83;;;;;;;;;;5042205;28;20271;-67
2022/11/25 06:31:36;;;;;;;78.28;26.30;;;;;;;;;;5039411;28;20295;-67
2022/11/25 06:34:02;;;;;;;68.53;25.03;;;;;;;;;;5040468;28;20095;-68
2022/11/25 06:36:27;;;;;;;63.58;23.45;;;;;;;;;;5040158;28;20273;-68
2022/11/25 06:38:53;;;;;;;69.70;23.95;;;;;;;;;;5041254;28;20510;-69
2022/11/25 06:41:19;;;;;;;67.22;22.05;;;;;;;;;;5045830;28;20454;-69
2022/11/25 06:43:44;;;;;;;68.55;22.52;;;;;;;;;;5045232;28;20025;-69
2022/11/25 06:46:10;;;;;;;74.75;23.15;;;;;;;;;;5041152;28;20369;-68
2022/11/25 06:48:36;;;;;;;70.63;23.08;;;;;;;;;;5038209;28;20029;-67
2022/11/25 06:51:02;;;;;;;62.10;22.90;;;;;;;;;;5039848;28;20017;-68
2022/11/25 06:53:27;;;;;;;64.68;23.45;;;;;;;;;;5035556;28;20017;-68
2022/11/25 06:56:03;;;;;;;58.47;23.03;;;;;;;;;;5037870;28;20379;-69
2022/11/25 06:58:29;;;;;;;62.38;23.88;;;;;;;;;;5043188;28;20066;-69
2022/11/25 07:00:59;;;;;;;62.67;24.23;;;;;;;;;;5033954;28;20029;-68
2022/11/25 07:03:24;;;;;;;63.22;23.38;;;;;;;;;;5042306;28;20059;-69
2022/11/25 07:05:49;;;;;;;67.20;25.17;;;;;;;;;;5042279;28;20601;-69
2022/11/25 07:08:15;;;;;;;64.60;24.27;;;;;;;;;;5042145;28;20061;-69
2022/11/25 07:10:40;;;;;;;69.63;24.50;;;;;;;;;;5045785;28;20047;-69
2022/11/25 07:13:05;;;;;;;62.90;24.47;;;;;;;;;;5044739;28;20026;-69
2022/11/25 07:15:32;;;;;;;63.00;25.80;;;;;;;;;;5048948;28;20052;-69
2022/11/25 07:17:58;;;;;;;73.85;26.60;;;;;;;;;;5038088;28;20037;-69
2022/11/25 07:20:24;;;;;;;69.50;25.90;;;;;;;;;;5043785;28;20385;-69
2022/11/25 07:22:49;;;;;;;69.40;25.15;;;;;;;;;;5032841;28;20721;-69
2022/11/25 07:25:14;;;;;;;67.13;23.77;;;;;;;;;;5040596;28;20111;-68
2022/11/25 07:27:39;;;;;;;79.73;26.00;;;;;;;;;;5038078;28;20777;-69
2022/11/25 07:30:05;;;;;;;74.23;26.13;;;;;;;;;;5036767;28;20557;-67
2022/11/25 07:32:31;;;;;;;73.50;24.98;;;;;;;;;;5037447;28;20029;-67
2022/11/25 07:34:57;;;;;;;78.65;26.65;;;;;;;;;;5037486;28;20478;-69
2022/11/25 07:37:22;;;;;;;67.07;25.00;;;;;;;;;;5033986;28;20033;-69
2022/11/25 07:39:47;;;;;;;70.78;26.13;;;;;;;;;;5040077;28;20056;-69
2022/11/25 07:42:13;;;;;;;85.93;28.77;;;;;;;;;;5035674;28;20025;-69
2022/11/25 07:44:38;;;;;;;88.17;32.60;;;;;;;;;;5037979;28;20269;-69
2022/11/25 07:47:03;;;;;;;81.73;30.27;;;;;;;;;;5040710;28;20274;-69
2022/11/25 07:49:28;;;;;;;85.33;30.93;;;;;;;;;;5034891;28;20045;-71
2022/11/25 07:51:56;;;;;;;79.83;31.60;;;;;;;;;;5037107;28;20029;-71
2022/11/25 07:54:22;;;;;;;74.93;26.90;;;;;;;;;;5031315;28;20690;-71
2022/11/25 07:56:48;;;;;;;79.65;29.25;;;;;;;;;;5041684;28;20146;-71
2022/11/25 07:59:15;;;;;;;83.80;30.80;;;;;;;;;;5044108;28;20017;-71
2022/11/25 08:01:41;;;;;;;105.53;38.10;;;;;;;;;;5041284;28;20526;-71
2022/11/25 08:04:07;;;;;;;93.85;34.58;;;;;;;;;;5046333;28;20032;-71
2022/11/25 08:06:35;;;;;;;83.05;31.63;;;;;;;;;;5041588;28;20028;-71
2022/11/25 08:09:01;;;;;;;69.40;29.07;;;;;;;;;;5046974;28;20966;-69
2022/11/25 08:11:29;;;;;;;72.73;29.20;;;;;;;;;;5038099;28;20100;-67
2022/11/25 08:13:55;;;;;;;77.40;30.27;;;;;;;;;;5040579;28;20386;-67
2022/11/25 08:16:21;;;;;;;74.07;28.25;;;;;;;;;;5038036;28;20029;-67
2022/11/25 08:18:46;;;;;;;75.72;29.60;;;;;;;;;;5035517;28;20024;-67
2022/11/25 08:21:12;;;;;;;68.32;26.92;;;;;;;;;;5042118;28;20028;-67
2022/11/25 08:23:38;;;;;;;64.72;26.85;;;;;;;;;;5021051;28;20049;-71
2022/11/25 08:26:05;;;;;;;65.63;25.38;;;;;;;;;;5041867;28;20036;-70
2022/11/25 08:28:30;;;;;;;61.72;25.30;;;;;;;;;;5039264;28;20028;-71
2022/11/25 08:31:06;;;;;;;71.50;27.60;;;;;;;;;;5043612;28;20466;-71
2022/11/25 08:33:31;;;;;;;77.95;28.73;;;;;;;;;;5039057;28;20429;-70
2022/11/25 08:35:57;;;;;;;73.53;27.83;;;;;;;;;;5045148;28;20030;-72
2022/11/25 08:38:22;;;;;;;84.28;28.58;;;;;;;3.34;nan;101029.19;5019578;28;20263;-71
2022/11/25 08:40:48;;;;;;;81.00;28.08;;;;;;;3.35;nan;101031.66;5036453;28;20029;-71
2022/11/25 08:43:14;;;;;;;82.60;27.67;;;;;;;3.27;nan;101015.19;5041542;28;20021;-71
2022/11/25 08:45:39;;;;;;;67.72;24.27;;;;;;;3.38;nan;101035.72;5044926;28;20087;-71
2022/11/25 08:48:06;;;;;;;65.53;24.35;;;;;;;3.35;nan;101039.47;5046349;28;20032;-71
2022/11/25 08:50:31;;;;;;;67.47;25.25;;;;;;;3.28;nan;101035.88;5039252;28;20029;-71
2022/11/25 08:52:58;;;;;;;70.93;25.92;;;;;;;3.42;nan;101060.44;5042371;28;20013;-72
2022/11/25 08:55:26;;;;;;;65.80;25.90;;;;;;;3.43;nan;101059.47;5046224;28;20108;-72
2022/11/25 08:57:52;;;;;;;64.50;23.25;;;;;;;3.38;nan;101043.53;5047032;28;20013;-72
2022/11/25 09:00:17;;;;;;;69.97;25.52;;;;;;;3.38;nan;101043.53;5035437;28;20518;-71
2022/11/25 09:02:43;;;;;;;65.82;23.15;;;;;;;3.46;nan;101050.53;5021837;28;20025;-71
2022/11/25 09:05:12;;;;;;;64.75;24.13;;;;;;;3.41;nan;101038.78;5039892;28;20017;-71
2022/11/25 09:07:37;;;;;;;64.57;23.77;;;;;;;3.53;nan;101059.31;5037284;28;20108;-69
2022/11/25 09:10:05;;;;;;;70.00;26.73;;;;;;;3.45;nan;101044.50;5042796;28;20116;-70
2022/11/25 09:12:30;;;;;;;82.82;31.38;;;;;;;3.44;nan;101042.84;5036671;28;20143;-69
2022/11/25 09:14:56;;;;;;;74.68;29.02;;;;;;;3.49;nan;101050.19;5039425;28;20059;-69
2022/11/25 09:17:21;;;;;;;69.47;25.55;;;;;;;3.64;nan;101061.59;5045196;28;20437;-70
2022/11/25 09:19:46;;;;;;;66.05;25.70;;;;;;;3.70;nan;101062.72;5041190;28;20356;-70
2022/11/25 09:22:12;;;;;;;64.50;23.00;;;;;;;3.65;nan;101052.00;5037823;28;20048;-70
2022/11/25 09:24:37;;;;;;;68.75;24.60;;;;;;;3.73;nan;101060.59;5017028;28;20032;-70
2022/11/25 09:27:03;;;;;;;64.75;23.27;;;;;;;3.73;nan;101054.59;5032360;28;20030;-70
2022/11/25 09:29:29;;;;;;;58.50;22.88;;;;;;;3.72;nan;101058.19;5032653;28;20021;-70
2022/11/25 09:31:55;;;;;;;65.53;22.80;;;;;;;3.81;nan;101071.03;5034263;28;20131;-70
2022/11/25 09:34:20;;;;;;;64.38;22.98;;;;;;;3.81;nan;101062.41;5035719;28;20799;-70
2022/11/25 09:36:45;;;;;;;61.65;23.38;;;;;;;3.80;nan;101050.34;5034441;28;20025;-70
2022/11/25 09:39:11;;;;;;;60.28;23.08;;;;;;;3.85;nan;101053.25;5034483;28;20057;-69
2022/11/25 09:49:17;;;;;;;59.72;22.58;;;;;;;4.02;nan;101067.94;4944028;28;20041;-69
2022/11/25 09:51:51;;;;;;;59.50;23.65;;;;;;;4.00;nan;101069.06;4945487;28;20032;-69
2022/11/25 09:54:31;;;;;;;57.80;23.33;;;;;;;3.88;nan;101052.13;4951655;28;20081;-68
2022/11/25 09:57:19;;;;;;;63.28;24.15;;;;;;;3.85;nan;101042.84;4951125;28;20038;-70
2022/11/25 10:00:11;;;;;;;62.15;22.98;;;;;;;3.99;nan;101070.84;4936891;29;20592;-70
2022/11/25 10:02:42;;;;;;;60.50;23.27;;;;;;;3.86;nan;101049.69;4951302;28;20114;-70
2022/11/25 10:05:20;;;;;;;57.83;24.55;;;;;;;4.02;nan;101059.28;4952952;28;20035;-70
2022/11/25 10:07:50;;;;;;;62.33;25.30;;;;;;;4.07;nan;101069.19;4951715;28;20063;-69
2022/11/25 10:10:27;;;;;;;63.10;24.88;;;;;;;4.05;nan;101064.16;4951238;28;20023;-69
2022/11/25 10:12:55;;;;;;;66.80;25.50;;;;;;;4.07;nan;101069.19;4951232;28;20114;-69
2022/11/25 10:15:33;;;;;;;63.20;25.40;;;;;;;4.11;nan;101071.31;4952422;28;20054;-69
2022/11/25 10:18:37;;;;;;;83.40;34.42;;;;;;;4.04;nan;101067.75;4953455;28;20031;-69
2022/11/25 10:21:03;;;;;;;73.43;29.25;;;;;;;3.92;nan;101061.25;5037930;28;20033;-69
2022/11/25 10:23:34;;;;;;;70.63;28.48;;;;;;;3.97;nan;101071.97;5020642;28;20595;-69
2022/11/25 10:26:13;;;;;;;71.03;28.35;;;;;;;3.99;nan;101076.06;5041951;28;20037;-70
2022/11/25 10:28:40;;;;;;;65.25;26.02;;;;;;;3.90;nan;101064.00;5025188;28;20025;-68
2022/11/25 10:31:18;;;;;;;70.65;27.55;;;;;;;4.01;nan;101074.09;5019422;28;20026;-68
2022/11/25 10:33:43;;;;;;;68.72;26.63;;;;;;;4.03;nan;101073.94;5019360;28;20606;-70
2022/11/25 10:36:20;;;;;;;73.75;27.98;;;;;;;3.99;nan;101059.59;5035193;28;20029;-68
2022/11/25 10:39:13;;;;;;;70.43;26.52;;;;;;;4.02;nan;101067.94;5020849;28;20087;-69
2022/11/25 10:41:51;;;;;;;64.88;26.88;;;;;;;4.03;nan;101069.53;5035716;28;20509;-69
2022/11/25 10:44:31;;;;;;;73.75;28.10;;;;;;;4.04;nan;101062.53;5024478;28;20025;-69
2022/11/25 10:47:31;;;;;;;71.20;27.75;;;;;;;4.09;nan;101068.06;5017257;28;20022;-69
2022/11/25 10:50:07;;;;;;;76.40;30.55;;;;;;;4.11;nan;101073.13;5017250;28;20100;-69
2022/11/25 10:52:53;;;;;;;74.45;28.10;;;;;;;4.12;nan;101070.34;5018036;28;20068;-69
2022/11/25 10:55:25;;;;;;;67.97;27.75;;;;;;;4.01;nan;101057.66;5008364;28;20033;-69
2022/11/25 10:57:51;;;;;;;68.68;27.55;;;;;;;3.82;nan;101023.16;5029171;28;20029;-69
2022/11/25 11:00:35;;;;;;;69.53;28.00;;;;;;;4.09;nan;101070.66;5014812;28;20490;-69
2022/11/25 11:03:23;;;;;;;72.65;29.35;;;;;;;4.08;nan;101069.03;5022163;28;20052;-70
2022/11/25 11:05:50;;;;;;;71.45;27.98;;;;;;;4.10;nan;101074.09;5023901;28;20022;-69
2022/11/25 11:08:22;;;;;;;71.78;27.35;;;;;;;4.10;nan;101068.91;5029622;28;20026;-70
2022/11/25 11:11:21;;;;;;;72.15;28.00;;;;;;;3.97;nan;101059.75;5025392;28;20029;-69
2022/11/25 11:13:49;;;;;;;71.00;26.40;;;;;;;4.07;nan;101075.25;5025683;28;20386;-69
2022/11/25 11:16:26;;;;;;;65.22;26.83;;;;;;;3.93;nan;101057.69;5025567;28;20424;-69
2022/11/25 11:18:53;;;;;;;68.95;26.60;;;;;;;4.02;nan;101077.50;5024824;28;20037;-69
2022/11/25 11:21:40;;;;;;;67.65;26.08;;;;;;;4.08;nan;101094.31;5020254;28;20025;-69
2022/11/25 11:24:25;;;;;;;71.45;28.20;;;;;;;4.10;nan;101087.94;5038497;28;20049;-68
2022/11/25 11:27:08;;;;;;;73.03;28.85;;;;;;;4.13;nan;101082.38;5036936;28;20021;-68
2022/11/25 11:29:34;;;;;;;60.45;24.83;;;;;;;4.05;nan;101077.19;5020630;28;20025;-68
2022/11/25 11:32:04;;;;;;;62.30;25.33;;;;;;;4.17;nan;101091.50;5020809;28;20058;-68
2022/11/25 11:34:40;;;;;;;57.08;23.70;;;;;;;4.17;nan;101088.09;5041016;28;20029;-68
2022/11/25 11:37:21;;;;;;;63.83;25.20;;;;;;;4.22;nan;101096.22;5036286;28;20029;-68
2022/11/25 11:39:59;;;;;;;57.67;23.20;;;;;;;4.13;nan;101090.22;5040559;28;20508;-68
2022/11/25 11:42:54;;;;;;;51.30;22.65;;;;;;;4.16;nan;101089.88;5036623;28;20036;-69
2022/11/25 11:46:12;;;;;;;60.80;24.58;;;;;;;4.19;nan;101088.72;5019579;28;20167;-68
2022/11/25 11:48:50;;;;;;;56.72;24.90;;;;;;;4.15;nan;101095.25;4991725;28;20041;-70
2022/11/25 11:51:59;;;;;;;57.08;24.55;;;;;;;4.18;nan;101102.75;5040708;28;20025;-68
2022/11/25 11:54:50;;;;;;;50.13;22.10;;;;;;;4.16;nan;101094.28;5035749;28;20100;-68
2022/11/25 11:57:28;;;;;;;55.97;22.70;;;;;;;4.07;nan;101090.88;5029860;28;20048;-68
2022/11/25 11:59:54;;;;;;;57.20;23.60;;;;;;;4.08;nan;101087.28;5036178;28;20031;-69
2022/11/25 12:02:23;;;;;;;65.40;26.15;;;;;;;4.15;nan;101100.47;5024735;28;20020;-68
2022/11/25 12:05:10;;;;;;;63.35;26.35;;;;;;;4.18;nan;101100.94;5034190;28;20119;-68
2022/11/25 12:08:08;;;;;;;70.30;29.10;;;;;;;4.23;nan;101098.66;5036244;28;20115;-68
2022/11/25 12:10:44;;;;;;;61.63;25.70;;;;;;;4.26;nan;101100.13;5037201;28;20782;-68
2022/11/25 12:13:13;;;;;;;60.13;24.52;;;;;;;4.24;nan;101096.88;5040565;28;20032;-67
2022/11/25 12:15:47;;;;;;;62.28;25.40;;;;;;;4.17;nan;101080.28;5038184;28;20084;-68
2022/11/25 12:18:25;;;;;;;68.55;26.95;;;;;;;4.30;nan;101095.41;5036085;28;20386;-68
2022/11/25 12:21:01;;;;;;;57.60;23.48;;;;;;;4.20;nan;101083.34;5043032;28;20479;-69
2022/11/25 12:23:50;;;;;;;59.78;23.77;;;;;;;4.32;nan;101102.06;5043498;28;20048;-68
2022/11/25 12:26:25;;;;;;;60.08;23.38;;;;;;;4.31;nan;101097.84;5027769;28;20041;-68
2022/11/25 12:28:56;;;;;;;53.35;24.00;;;;;;;4.20;nan;101090.38;5040665;28;20075;-68
2022/11/25 12:31:30;;;;;;;57.85;24.90;;;;;;;4.28;nan;101105.19;5019806;28;20116;-69
2022/11/25 12:34:06;;;;;;;61.35;25.33;;;;;;;4.28;nan;101108.59;5036836;28;20108;-68
2022/11/25 12:36:38;;;;;;;64.30;24.52;;;;;;;4.28;nan;101107.78;5026683;28;20025;-70
2022/11/25 12:39:41;;;;;;;63.95;27.70;;;;;;;4.32;nan;101109.09;5042142;28;20099;-69
2022/11/25 12:42:21;;;;;;;60.08;24.80;;;;;;;4.22;nan;101094.44;5039230;28;20029;-69
2022/11/25 12:44:46;;;;;;;55.70;21.77;;;;;;;4.36;nan;101110.38;5026861;28;20059;-69
2022/11/25 12:47:12;;;;;;;55.90;23.00;;;;;;;4.34;nan;101109.75;5051873;28;20482;-69
2022/11/25 12:49:47;;;;;;;51.08;21.02;;;;;;;4.13;nan;101095.44;5026681;28;20425;-69
2022/11/25 12:52:49;;;;;;;52.40;21.58;;;;;;;4.21;nan;101108.47;5045456;28;20025;-69
2022/11/25 12:55:27;;;;;;;51.85;21.73;;;;;;;4.01;nan;101094.13;5041487;28;20037;-70
2022/11/25 12:58:05;;;;;;;53.97;22.20;;;;;;;4.05;nan;101111.09;5021795;28;20036;-69
2022/11/25 13:00:50;;;;;;;53.40;22.35;;;;;;;4.10;nan;101110.59;5029982;28;20032;-69
2022/11/25 13:03:53;;;;;;;71.28;29.42;;;;;;;4.12;nan;101113.81;5045495;28;20540;-70
2022/11/25 13:06:48;;;;;;;60.80;23.65;;;;;;;4.15;nan;101116.13;5039790;28;20090;-69
2022/11/25 13:09:26;;;;;;;54.60;22.90;;;;;;;4.11;nan;101118.22;5007477;28;20041;-69
2022/11/25 13:12:13;;;;;;;57.90;23.50;;;;;;;4.14;nan;101119.69;5038436;28;20032;-68
2022/11/25 13:15:00;;;;;;;56.97;23.70;;;;;;;4.13;nan;101115.47;5020494;28;20022;-69
2022/11/25 13:17:28;;;;;;;56.50;22.77;;;;;;;4.08;nan;101109.94;5038493;28;20025;-70
2022/11/25 13:20:25;;;;;;;54.97;23.60;;;;;;;4.10;nan;101126.22;5033229;28;20029;-69
2022/11/25 13:23:01;;;;;;;51.75;20.90;;;;;;;4.07;nan;101121.31;4963667;28;20262;-69
2022/11/25 13:25:28;;;;;;;57.97;21.15;;;;;;;3.99;nan;101111.72;4986131;28;20046;-70
2022/11/25 13:27:54;;;;;;;64.75;27.92;;;;;;;4.02;nan;101120.03;4986576;28;20464;-69
2022/11/25 13:30:31;;;;;;;60.20;27.93;;;;;;;3.99;nan;101117.75;4987247;28;20125;-68
2022/11/25 13:33:17;;;;;;;57.67;23.45;;;;;;;3.95;nan;101115.63;4989229;28;20267;-69
2022/11/25 13:35:43;;;;;;;49.05;20.92;;;;;;;3.95;nan;101113.84;4953542;28;20038;-69
2022/11/25 13:38:46;;;;;;;58.63;21.45;;;;;;;3.97;nan;101116.28;4991254;28;20102;-69
2022/11/25 13:41:14;;;;;;;57.60;21.85;;;;;;;3.99;nan;101115.13;4991337;28;20465;-76